sensor_id;sensor_type;location;lat;lon;timestamp;temperature;humidity
7708;DHT22;3896;48.758;8.888;2022-10-04T00:01:11;6.40;99.90
7708;DHT22;3896;48.758;8.888;2022-10-04T00:04:01;6.40;99.90
7708;DHT22;3896;48.758;8.888;2022-10-04T00:06:29;6.40;99.90
7708;DHT22;3896;48.758;8.888;2022-10-04T00:11:37;6.30;99.90
7708;DHT22;3896;48.758;8.888;2022-10-04T00:16:39;6.30;99.90
7708;DHT22;3896;48.758;8.888;2022-10-04T00:24:26;6.20;99.90
7708;DHT22;3896;48.758;8.888;2022-10-04T00:29:32;6.20;99.90
7708;DHT22;3896;48.758;8.888;2022-10-04T00:32:24;6.10;99.90
7708;DHT22;3896;48.758;8.888;2022-10-04T00:34:52;6.10;99.90
7708;DHT22;3896;48.758;8.888;2022-10-04T00:37:19;6.10;99.90
7708;DHT22;3896;48.758;8.888;2022-10-04T00:39:57;6.10;99.90
7708;DHT22;3896;48.758;8.888;2022-10-04T00:42:49;6.10;99.90
7708;DHT22;3896;48.758;8.888;2022-10-04T00:45:25;6.00;99.90
7708;DHT22;3896;48.758;8.888;2022-10-04T00:48:09;6.00;99.90
7708;DHT22;3896;48.758;8.888;2022-10-04T00:50:40;6.00;99.90
7708;DHT22;3896;48.758;8.888;2022-10-04T00:56:22;6.00;99.90
7708;DHT22;3896;48.758;8.888;2022-10-04T00:59:08;5.90;99.90
7708;DHT22;3896;48.758;8.888;2022-10-04T01:01:37;5.90;99.90
7708;DHT22;3896;48.758;8.888;2022-10-04T01:04:05;5.90;99.90
7708;DHT22;3896;48.758;8.888;2022-10-04T01:06:36;5.90;99.90
7708;DHT22;3896;48.758;8.888;2022-10-04T01:09:05;5.80;99.90
7708;DHT22;3896;48.758;8.888;2022-10-04T01:11:40;5.80;99.90
7708;DHT22;3896;48.758;8.888;2022-10-04T01:14:12;5.80;99.90
7708;DHT22;3896;48.758;8.888;2022-10-04T01:16:43;5.80;99.90
7708;DHT22;3896;48.758;8.888;2022-10-04T01:21:55;5.70;99.90
7708;DHT22;3896;48.758;8.888;2022-10-04T01:24:22;5.70;99.90
7708;DHT22;3896;48.758;8.888;2022-10-04T01:26:48;5.70;99.90
7708;DHT22;3896;48.758;8.888;2022-10-04T01:29:24;5.70;99.90
7708;DHT22;3896;48.758;8.888;2022-10-04T01:31:56;5.60;99.90
7708;DHT22;3896;48.758;8.888;2022-10-04T01:34:28;5.60;99.90
7708;DHT22;3896;48.758;8.888;2022-10-04T01:36:56;5.60;99.90
7708;DHT22;3896;48.758;8.888;2022-10-04T01:39:24;5.60;99.90
7708;DHT22;3896;48.758;8.888;2022-10-04T01:42:16;5.60;99.90
7708;DHT22;3896;48.758;8.888;2022-10-04T01:44:55;5.50;99.90
7708;DHT22;3896;48.758;8.888;2022-10-04T01:47:52;5.50;99.90
7708;DHT22;3896;48.758;8.888;2022-10-04T01:50:30;5.50;99.90
7708;DHT22;3896;48.758;8.888;2022-10-04T01:53:05;5.40;99.90
7708;DHT22;3896;48.758;8.888;2022-10-04T01:55:35;5.40;99.90
7708;DHT22;3896;48.758;8.888;2022-10-04T01:58:21;5.40;99.90
7708;DHT22;3896;48.758;8.888;2022-10-04T02:00:54;5.40;99.90
7708;DHT22;3896;48.758;8.888;2022-10-04T02:03:33;5.50;99.90
7708;DHT22;3896;48.758;8.888;2022-10-04T02:06:03;5.40;99.90
7708;DHT22;3896;48.758;8.888;2022-10-04T02:08:32;5.40;99.90
7708;DHT22;3896;48.758;8.888;2022-10-04T02:11:00;5.30;99.90
7708;DHT22;3896;48.758;8.888;2022-10-04T02:13:33;5.30;99.90
7708;DHT22;3896;48.758;8.888;2022-10-04T02:16:00;5.30;99.90
7708;DHT22;3896;48.758;8.888;2022-10-04T02:18:27;5.30;99.90
7708;DHT22;3896;48.758;8.888;2022-10-04T02:20:54;5.30;99.90
7708;DHT22;3896;48.758;8.888;2022-10-04T02:23:21;5.30;99.90
7708;DHT22;3896;48.758;8.888;2022-10-04T02:25:48;5.30;99.90
7708;DHT22;3896;48.758;8.888;2022-10-04T02:28:14;5.20;99.90
7708;DHT22;3896;48.758;8.888;2022-10-04T02:30:49;5.20;99.90
7708;DHT22;3896;48.758;8.888;2022-10-04T02:33:42;5.20;99.90
7708;DHT22;3896;48.758;8.888;2022-10-04T02:36:10;5.10;99.90
7708;DHT22;3896;48.758;8.888;2022-10-04T02:38:43;5.10;99.90
7708;DHT22;3896;48.758;8.888;2022-10-04T02:41:26;5.10;99.90
7708;DHT22;3896;48.758;8.888;2022-10-04T02:44:18;5.10;99.90
7708;DHT22;3896;48.758;8.888;2022-10-04T02:49:37;5.00;99.90
7708;DHT22;3896;48.758;8.888;2022-10-04T02:52:11;5.00;99.90
7708;DHT22;3896;48.758;8.888;2022-10-04T02:55:08;5.00;99.90
7708;DHT22;3896;48.758;8.888;2022-10-04T02:57:40;4.90;99.90
7708;DHT22;3896;48.758;8.888;2022-10-04T03:00:17;4.90;99.90
7708;DHT22;3896;48.758;8.888;2022-10-04T03:03:09;4.90;99.90
7708;DHT22;3896;48.758;8.888;2022-10-04T03:05:37;4.90;99.90
7708;DHT22;3896;48.758;8.888;2022-10-04T03:08:04;4.90;99.90
7708;DHT22;3896;48.758;8.888;2022-10-04T03:10:30;4.90;99.90
7708;DHT22;3896;48.758;8.888;2022-10-04T03:12:56;4.90;99.90
7708;DHT22;3896;48.758;8.888;2022-10-04T03:15:22;4.90;99.90
7708;DHT22;3896;48.758;8.888;2022-10-04T03:17:48;4.90;99.90
7708;DHT22;3896;48.758;8.888;2022-10-04T03:20:16;4.90;99.90
7708;DHT22;3896;48.758;8.888;2022-10-04T03:22:49;4.90;99.90
7708;DHT22;3896;48.758;8.888;2022-10-04T03:25:19;4.80;99.90
7708;DHT22;3896;48.758;8.888;2022-10-04T03:27:46;4.80;99.90
7708;DHT22;3896;48.758;8.888;2022-10-04T03:30:16;4.80;99.90
7708;DHT22;3896;48.758;8.888;2022-10-04T03:32:45;4.80;99.90
7708;DHT22;3896;48.758;8.888;2022-10-04T03:35:35;4.80;99.90
7708;DHT22;3896;48.758;8.888;2022-10-04T03:38:06;4.80;99.90
7708;DHT22;3896;48.758;8.888;2022-10-04T03:40:32;4.80;99.90
7708;DHT22;3896;48.758;8.888;2022-10-04T03:42:59;4.80;99.90
7708;DHT22;3896;48.758;8.888;2022-10-04T03:45:27;4.80;99.90
7708;DHT22;3896;48.758;8.888;2022-10-04T03:47:57;4.80;99.90
7708;DHT22;3896;48.758;8.888;2022-10-04T03:50:27;4.70;99.90
7708;DHT22;3896;48.758;8.888;2022-10-04T03:52:56;4.70;99.90
7708;DHT22;3896;48.758;8.888;2022-10-04T03:55:32;4.70;99.90
7708;DHT22;3896;48.758;8.888;2022-10-04T03:57:58;4.70;99.90
7708;DHT22;3896;48.758;8.888;2022-10-04T04:00:25;4.70;99.90
7708;DHT22;3896;48.758;8.888;2022-10-04T04:03:00;4.70;99.90
7708;DHT22;3896;48.758;8.888;2022-10-04T04:05:31;4.70;99.90
7708;DHT22;3896;48.758;8.888;2022-10-04T04:08:31;4.70;99.90
7708;DHT22;3896;48.758;8.888;2022-10-04T04:11:00;4.70;99.90
7708;DHT22;3896;48.758;8.888;2022-10-04T04:16:04;4.70;99.90
7708;DHT22;3896;48.758;8.888;2022-10-04T04:18:34;4.70;99.90
7708;DHT22;3896;48.758;8.888;2022-10-04T04:21:02;4.70;99.90
7708;DHT22;3896;48.758;8.888;2022-10-04T04:28:40;4.60;99.90
7708;DHT22;3896;48.758;8.888;2022-10-04T04:31:15;4.60;99.90
7708;DHT22;3896;48.758;8.888;2022-10-04T04:34:13;4.60;99.90
7708;DHT22;3896;48.758;8.888;2022-10-04T04:36:40;4.60;99.90
7708;DHT22;3896;48.758;8.888;2022-10-04T04:39:08;4.60;99.90
7708;DHT22;3896;48.758;8.888;2022-10-04T04:41:52;4.60;99.90
7708;DHT22;3896;48.758;8.888;2022-10-04T04:44:18;4.60;99.90
7708;DHT22;3896;48.758;8.888;2022-10-04T04:46:47;4.60;99.90
7708;DHT22;3896;48.758;8.888;2022-10-04T04:49:16;4.60;99.90
7708;DHT22;3896;48.758;8.888;2022-10-04T04:51:49;4.60;99.90
7708;DHT22;3896;48.758;8.888;2022-10-04T04:54:17;4.60;99.90
7708;DHT22;3896;48.758;8.888;2022-10-04T04:56:47;4.60;99.90
7708;DHT22;3896;48.758;8.888;2022-10-04T04:59:14;4.60;99.90
7708;DHT22;3896;48.758;8.888;2022-10-04T05:01:45;4.60;99.90
7708;DHT22;3896;48.758;8.888;2022-10-04T05:06:39;4.60;99.90
7708;DHT22;3896;48.758;8.888;2022-10-04T05:09:19;4.60;99.90
7708;DHT22;3896;48.758;8.888;2022-10-04T05:11:46;4.60;99.90
7708;DHT22;3896;48.758;8.888;2022-10-04T05:14:14;4.60;99.90
7708;DHT22;3896;48.758;8.888;2022-10-04T05:16:48;4.60;99.90
7708;DHT22;3896;48.758;8.888;2022-10-04T05:19:25;4.60;99.90
7708;DHT22;3896;48.758;8.888;2022-10-04T05:21:54;4.50;99.90
7708;DHT22;3896;48.758;8.888;2022-10-04T05:26:52;4.60;99.90
7708;DHT22;3896;48.758;8.888;2022-10-04T05:29:22;4.60;99.90
7708;DHT22;3896;48.758;8.888;2022-10-04T05:34:25;4.60;99.90
7708;DHT22;3896;48.758;8.888;2022-10-04T05:39:40;4.60;99.90
7708;DHT22;3896;48.758;8.888;2022-10-04T05:42:15;4.60;99.90
7708;DHT22;3896;48.758;8.888;2022-10-04T05:44:53;4.60;99.90
7708;DHT22;3896;48.758;8.888;2022-10-04T05:47:20;4.60;99.90
7708;DHT22;3896;48.758;8.888;2022-10-04T05:49:53;4.60;99.90
7708;DHT22;3896;48.758;8.888;2022-10-04T05:52:37;4.60;99.90
7708;DHT22;3896;48.758;8.888;2022-10-04T05:55:14;4.60;99.90
7708;DHT22;3896;48.758;8.888;2022-10-04T06:03:33;4.60;99.90
7708;DHT22;3896;48.758;8.888;2022-10-04T06:09:24;4.70;99.90
7708;DHT22;3896;48.758;8.888;2022-10-04T06:12:36;4.70;99.90
7708;DHT22;3896;48.758;8.888;2022-10-04T06:26:42;4.70;99.90
7708;DHT22;3896;48.758;8.888;2022-10-04T06:29:18;4.90;99.90
7708;DHT22;3896;48.758;8.888;2022-10-04T06:37:08;4.90;99.90
7708;DHT22;3896;48.758;8.888;2022-10-04T06:40:11;5.00;99.90
7708;DHT22;3896;48.758;8.888;2022-10-04T06:46:55;5.00;99.90
7708;DHT22;3896;48.758;8.888;2022-10-04T06:51:44;5.10;99.90
7708;DHT22;3896;48.758;8.888;2022-10-04T07:02:49;5.40;99.90
7708;DHT22;3896;48.758;8.888;2022-10-04T07:05:43;5.40;99.90
7708;DHT22;3896;48.758;8.888;2022-10-04T07:11:22;5.60;99.90
7708;DHT22;3896;48.758;8.888;2022-10-04T07:16:49;5.70;99.90
7708;DHT22;3896;48.758;8.888;2022-10-04T07:27:07;6.00;99.90
7708;DHT22;3896;48.758;8.888;2022-10-04T07:29:39;6.10;99.90
7708;DHT22;3896;48.758;8.888;2022-10-04T07:32:27;6.20;99.90
7708;DHT22;3896;48.758;8.888;2022-10-04T07:37:43;6.40;99.90
7708;DHT22;3896;48.758;8.888;2022-10-04T07:40:31;6.50;99.90
7708;DHT22;3896;48.758;8.888;2022-10-04T07:43:05;6.50;99.90
7708;DHT22;3896;48.758;8.888;2022-10-04T07:45:35;6.60;99.90
7708;DHT22;3896;48.758;8.888;2022-10-04T07:48:15;6.70;99.90
7708;DHT22;3896;48.758;8.888;2022-10-04T07:51:27;6.80;99.90
7708;DHT22;3896;48.758;8.888;2022-10-04T07:56:42;7.00;99.90
7708;DHT22;3896;48.758;8.888;2022-10-04T07:59:37;7.10;99.90
7708;DHT22;3896;48.758;8.888;2022-10-04T08:05:04;7.30;99.90
7708;DHT22;3896;48.758;8.888;2022-10-04T08:13:32;7.60;99.90
7708;DHT22;3896;48.758;8.888;2022-10-04T08:16:03;7.70;99.90
7708;DHT22;3896;48.758;8.888;2022-10-04T08:21:53;7.90;99.90
7708;DHT22;3896;48.758;8.888;2022-10-04T08:24:28;8.00;99.90
7708;DHT22;3896;48.758;8.888;2022-10-04T08:27:38;8.20;99.90
7708;DHT22;3896;48.758;8.888;2022-10-04T08:30:16;8.20;99.90
7708;DHT22;3896;48.758;8.888;2022-10-04T08:33:06;8.40;99.90
7708;DHT22;3896;48.758;8.888;2022-10-04T08:38:48;8.60;99.90
7708;DHT22;3896;48.758;8.888;2022-10-04T08:41:31;8.70;99.90
7708;DHT22;3896;48.758;8.888;2022-10-04T08:46:57;9.00;99.90
7708;DHT22;3896;48.758;8.888;2022-10-04T08:58:12;9.70;99.90
7708;DHT22;3896;48.758;8.888;2022-10-04T09:00:49;9.80;99.90
7708;DHT22;3896;48.758;8.888;2022-10-04T09:03:27;10.00;99.90
7708;DHT22;3896;48.758;8.888;2022-10-04T09:06:11;10.20;99.90
7708;DHT22;3896;48.758;8.888;2022-10-04T09:11:44;10.50;99.90
7708;DHT22;3896;48.758;8.888;2022-10-04T09:17:18;10.80;99.90
7708;DHT22;3896;48.758;8.888;2022-10-04T09:22:58;11.20;99.90
7708;DHT22;3896;48.758;8.888;2022-10-04T09:33:20;11.90;99.90
7708;DHT22;3896;48.758;8.888;2022-10-04T09:55:05;13.20;99.90
7708;DHT22;3896;48.758;8.888;2022-10-04T10:00:24;13.50;99.90
7708;DHT22;3896;48.758;8.888;2022-10-04T10:05:28;13.80;99.90
7708;DHT22;3896;48.758;8.888;2022-10-04T10:08:22;13.90;99.90
7708;DHT22;3896;48.758;8.888;2022-10-04T10:14:12;14.20;99.90
7708;DHT22;3896;48.758;8.888;2022-10-04T10:20:02;14.60;99.90
7708;DHT22;3896;48.758;8.888;2022-10-04T10:28:17;15.10;99.90
7708;DHT22;3896;48.758;8.888;2022-10-04T10:31:26;15.20;99.90
7708;DHT22;3896;48.758;8.888;2022-10-04T10:37:14;15.60;99.90
7708;DHT22;3896;48.758;8.888;2022-10-04T10:40:06;15.80;99.90
7708;DHT22;3896;48.758;8.888;2022-10-04T10:45:31;16.20;99.90
7708;DHT22;3896;48.758;8.888;2022-10-04T10:48:15;16.40;99.90
7708;DHT22;3896;48.758;8.888;2022-10-04T10:51:08;16.60;99.90
7708;DHT22;3896;48.758;8.888;2022-10-04T11:02:50;17.20;97.70
7708;DHT22;3896;48.758;8.888;2022-10-04T11:05:47;17.40;96.50
7708;DHT22;3896;48.758;8.888;2022-10-04T11:14:50;17.90;92.70
7708;DHT22;3896;48.758;8.888;2022-10-04T11:26:14;18.40;87.70
7708;DHT22;3896;48.758;8.888;2022-10-04T11:37:47;19.00;83.50
7708;DHT22;3896;48.758;8.888;2022-10-04T11:40:46;19.10;81.80
7708;DHT22;3896;48.758;8.888;2022-10-04T11:43:36;19.20;81.00
7708;DHT22;3896;48.758;8.888;2022-10-04T11:46:43;19.40;79.80
7708;DHT22;3896;48.758;8.888;2022-10-04T11:49:28;19.50;79.10
7708;DHT22;3896;48.758;8.888;2022-10-04T11:52:14;19.70;76.90
7708;DHT22;3896;48.758;8.888;2022-10-04T12:00:14;20.30;73.90
7708;DHT22;3896;48.758;8.888;2022-10-04T12:06:15;20.50;72.10
7708;DHT22;3896;48.758;8.888;2022-10-04T12:14:25;21.10;67.90
7708;DHT22;3896;48.758;8.888;2022-10-04T12:31:26;22.20;62.80
7708;DHT22;3896;48.758;8.888;2022-10-04T12:42:56;22.70;60.00
7708;DHT22;3896;48.758;8.888;2022-10-04T12:49:06;23.10;60.00
7708;DHT22;3896;48.758;8.888;2022-10-04T12:51:21;23.20;59.30
7708;DHT22;3896;48.758;8.888;2022-10-04T12:54:15;23.50;58.60
7708;DHT22;3896;48.758;8.888;2022-10-04T12:57:05;23.70;58.40
7708;DHT22;3896;48.758;8.888;2022-10-04T12:59:43;23.90;57.60
7708;DHT22;3896;48.758;8.888;2022-10-04T13:07:44;24.30;56.00
7708;DHT22;3896;48.758;8.888;2022-10-04T13:24:24;25.40;53.20
7708;DHT22;3896;48.758;8.888;2022-10-04T13:26:53;25.50;51.80
7708;DHT22;3896;48.758;8.888;2022-10-04T13:31:59;25.80;51.00
7708;DHT22;3896;48.758;8.888;2022-10-04T13:42:43;26.60;49.60
7708;DHT22;3896;48.758;8.888;2022-10-04T13:45:40;26.70;49.30
7708;DHT22;3896;48.758;8.888;2022-10-04T13:50:57;27.10;47.10
7708;DHT22;3896;48.758;8.888;2022-10-04T13:53:31;27.20;46.70
7708;DHT22;3896;48.758;8.888;2022-10-04T13:56:40;27.30;45.90
7708;DHT22;3896;48.758;8.888;2022-10-04T13:59:31;27.50;47.00
7708;DHT22;3896;48.758;8.888;2022-10-04T14:05:35;27.70;45.00
7708;DHT22;3896;48.758;8.888;2022-10-04T14:16:43;28.20;44.20
7708;DHT22;3896;48.758;8.888;2022-10-04T14:19:33;28.30;43.60
7708;DHT22;3896;48.758;8.888;2022-10-04T14:27:30;28.60;43.70
7708;DHT22;3896;48.758;8.888;2022-10-04T14:33:06;28.70;43.10
7708;DHT22;3896;48.758;8.888;2022-10-04T14:35:47;28.70;43.70
7708;DHT22;3896;48.758;8.888;2022-10-04T14:49:10;28.20;42.90
7708;DHT22;3896;48.758;8.888;2022-10-04T14:52:02;28.00;42.10
7708;DHT22;3896;48.758;8.888;2022-10-04T15:07:14;26.90;45.50
7708;DHT22;3896;48.758;8.888;2022-10-04T15:09:53;26.70;46.00
7708;DHT22;3896;48.758;8.888;2022-10-04T15:17:42;26.00;47.10
7708;DHT22;3896;48.758;8.888;2022-10-04T15:23:15;25.70;47.80
7708;DHT22;3896;48.758;8.888;2022-10-04T15:25:48;25.50;48.00
7708;DHT22;3896;48.758;8.888;2022-10-04T15:32:02;25.10;49.70
7708;DHT22;3896;48.758;8.888;2022-10-04T15:34:42;24.90;49.80
7708;DHT22;3896;48.758;8.888;2022-10-04T15:43:12;24.50;50.50
7708;DHT22;3896;48.758;8.888;2022-10-04T15:54:38;23.90;53.20
7708;DHT22;3896;48.758;8.888;2022-10-04T16:00:20;23.60;54.60
7708;DHT22;3896;48.758;8.888;2022-10-04T16:06:20;23.40;55.60
7708;DHT22;3896;48.758;8.888;2022-10-04T16:14:21;23.10;56.70
7708;DHT22;3896;48.758;8.888;2022-10-04T16:28:53;22.40;59.60
7708;DHT22;3896;48.758;8.888;2022-10-04T16:31:36;22.30;60.20
7708;DHT22;3896;48.758;8.888;2022-10-04T16:34:33;22.20;60.90
7708;DHT22;3896;48.758;8.888;2022-10-04T16:39:49;21.80;61.80
7708;DHT22;3896;48.758;8.888;2022-10-04T16:48:36;21.50;63.00
7708;DHT22;3896;48.758;8.888;2022-10-04T16:51:13;21.30;63.30
7708;DHT22;3896;48.758;8.888;2022-10-04T16:56:28;21.00;64.20
7708;DHT22;3896;48.758;8.888;2022-10-04T16:58:59;20.90;64.40
7708;DHT22;3896;48.758;8.888;2022-10-04T17:12:52;20.30;64.60
7708;DHT22;3896;48.758;8.888;2022-10-04T17:20:43;19.70;65.20
7708;DHT22;3896;48.758;8.888;2022-10-04T17:52:15;18.00;69.20
7708;DHT22;3896;48.758;8.888;2022-10-04T17:55:02;17.90;70.00
7708;DHT22;3896;48.758;8.888;2022-10-04T17:58:01;17.80;70.40
7708;DHT22;3896;48.758;8.888;2022-10-04T18:01:04;17.60;70.50
7708;DHT22;3896;48.758;8.888;2022-10-04T18:03:36;17.50;70.50
7708;DHT22;3896;48.758;8.888;2022-10-04T18:06:26;17.40;70.80
7708;DHT22;3896;48.758;8.888;2022-10-04T18:09:01;17.30;70.80
7708;DHT22;3896;48.758;8.888;2022-10-04T18:11:29;17.20;71.00
7708;DHT22;3896;48.758;8.888;2022-10-04T18:13:58;17.10;71.30
7708;DHT22;3896;48.758;8.888;2022-10-04T18:18:54;16.90;71.90
7708;DHT22;3896;48.758;8.888;2022-10-04T18:21:27;16.80;72.20
7708;DHT22;3896;48.758;8.888;2022-10-04T18:26:21;16.60;73.00
7708;DHT22;3896;48.758;8.888;2022-10-04T18:28:49;16.50;73.20
7708;DHT22;3896;48.758;8.888;2022-10-04T18:31:39;16.40;73.30
7708;DHT22;3896;48.758;8.888;2022-10-04T18:34:27;16.30;73.30
7708;DHT22;3896;48.758;8.888;2022-10-04T18:37:18;16.20;73.60
7708;DHT22;3896;48.758;8.888;2022-10-04T18:39:46;16.10;74.00
7708;DHT22;3896;48.758;8.888;2022-10-04T18:42:29;16.00;74.30
7708;DHT22;3896;48.758;8.888;2022-10-04T18:44:57;15.90;74.60
7708;DHT22;3896;48.758;8.888;2022-10-04T18:47:33;15.80;75.30
7708;DHT22;3896;48.758;8.888;2022-10-04T18:50:03;15.70;75.40
7708;DHT22;3896;48.758;8.888;2022-10-04T18:52:48;15.70;76.00
7708;DHT22;3896;48.758;8.888;2022-10-04T18:55:46;15.60;76.50
7708;DHT22;3896;48.758;8.888;2022-10-04T19:04:40;15.20;76.70
7708;DHT22;3896;48.758;8.888;2022-10-04T19:10:05;15.00;77.30
7708;DHT22;3896;48.758;8.888;2022-10-04T19:23:46;14.60;78.30
7708;DHT22;3896;48.758;8.888;2022-10-04T19:26:25;14.60;78.70
7708;DHT22;3896;48.758;8.888;2022-10-04T19:29:25;14.40;78.90
7708;DHT22;3896;48.758;8.888;2022-10-04T19:31:59;14.30;79.10
7708;DHT22;3896;48.758;8.888;2022-10-04T19:34:37;14.30;80.20
7708;DHT22;3896;48.758;8.888;2022-10-04T19:48:09;13.90;82.30
7708;DHT22;3896;48.758;8.888;2022-10-04T19:50:48;13.80;83.30
7708;DHT22;3896;48.758;8.888;2022-10-04T19:55:56;13.70;84.50
7708;DHT22;3896;48.758;8.888;2022-10-04T20:01:17;13.60;85.20
7708;DHT22;3896;48.758;8.888;2022-10-04T20:03:45;13.40;85.10
7708;DHT22;3896;48.758;8.888;2022-10-04T20:06:21;13.40;85.70
7708;DHT22;3896;48.758;8.888;2022-10-04T20:08:55;13.30;85.90
7708;DHT22;3896;48.758;8.888;2022-10-04T20:11:48;13.30;86.70
7708;DHT22;3896;48.758;8.888;2022-10-04T20:21:43;13.00;88.70
7708;DHT22;3896;48.758;8.888;2022-10-04T20:35:09;12.70;90.60
7708;DHT22;3896;48.758;8.888;2022-10-04T20:38:12;12.70;90.90
7708;DHT22;3896;48.758;8.888;2022-10-04T20:45:56;12.50;91.60
7708;DHT22;3896;48.758;8.888;2022-10-04T20:48:24;12.40;91.60
7708;DHT22;3896;48.758;8.888;2022-10-04T20:50:51;12.40;92.10
7708;DHT22;3896;48.758;8.888;2022-10-04T20:53:29;12.40;92.40
7708;DHT22;3896;48.758;8.888;2022-10-04T20:58:35;12.20;92.60
7708;DHT22;3896;48.758;8.888;2022-10-04T21:01:03;12.20;93.10
7708;DHT22;3896;48.758;8.888;2022-10-04T21:03:41;12.10;93.40
7708;DHT22;3896;48.758;8.888;2022-10-04T21:06:08;12.10;93.90
7708;DHT22;3896;48.758;8.888;2022-10-04T21:08:34;12.00;94.20
7708;DHT22;3896;48.758;8.888;2022-10-04T21:11:03;12.00;94.20
7708;DHT22;3896;48.758;8.888;2022-10-04T21:13:57;12.00;94.10
7708;DHT22;3896;48.758;8.888;2022-10-04T21:16:45;11.90;93.70
7708;DHT22;3896;48.758;8.888;2022-10-04T21:24:55;11.70;94.30
7708;DHT22;3896;48.758;8.888;2022-10-04T21:27:28;11.60;94.60
7708;DHT22;3896;48.758;8.888;2022-10-04T21:29:55;11.60;94.80
7708;DHT22;3896;48.758;8.888;2022-10-04T21:32:21;11.60;94.80
7708;DHT22;3896;48.758;8.888;2022-10-04T21:34:47;11.50;95.20
7708;DHT22;3896;48.758;8.888;2022-10-04T21:37:13;11.50;95.10
7708;DHT22;3896;48.758;8.888;2022-10-04T21:39:38;11.40;95.30
7708;DHT22;3896;48.758;8.888;2022-10-04T21:42:04;11.40;95.60
7708;DHT22;3896;48.758;8.888;2022-10-04T21:44:30;11.30;95.80
7708;DHT22;3896;48.758;8.888;2022-10-04T21:46:55;11.30;95.90
7708;DHT22;3896;48.758;8.888;2022-10-04T21:49:21;11.20;96.00
7708;DHT22;3896;48.758;8.888;2022-10-04T21:51:46;11.20;95.90
7708;DHT22;3896;48.758;8.888;2022-10-04T21:54:12;11.20;95.90
7708;DHT22;3896;48.758;8.888;2022-10-04T21:56:38;11.10;96.00
7708;DHT22;3896;48.758;8.888;2022-10-04T21:59:03;11.10;95.90
7708;DHT22;3896;48.758;8.888;2022-10-04T22:01:29;11.00;95.90
7708;DHT22;3896;48.758;8.888;2022-10-04T22:03:55;11.00;96.10
7708;DHT22;3896;48.758;8.888;2022-10-04T22:06:21;10.90;96.20
7708;DHT22;3896;48.758;8.888;2022-10-04T22:08:46;10.90;96.40
7708;DHT22;3896;48.758;8.888;2022-10-04T22:11:12;10.90;96.70
7708;DHT22;3896;48.758;8.888;2022-10-04T22:13:38;10.80;96.80
7708;DHT22;3896;48.758;8.888;2022-10-04T22:16:04;10.80;96.90
7708;DHT22;3896;48.758;8.888;2022-10-04T22:18:31;10.70;96.90
7708;DHT22;3896;48.758;8.888;2022-10-04T22:20:57;10.70;97.30
7708;DHT22;3896;48.758;8.888;2022-10-04T22:23:25;10.60;97.60
7708;DHT22;3896;48.758;8.888;2022-10-04T22:25:52;10.60;98.00
7708;DHT22;3896;48.758;8.888;2022-10-04T22:28:23;10.60;98.60
7708;DHT22;3896;48.758;8.888;2022-10-04T22:30:50;10.50;99.10
7708;DHT22;3896;48.758;8.888;2022-10-04T22:33:34;10.50;99.30
7708;DHT22;3896;48.758;8.888;2022-10-04T22:36:21;10.40;99.20
7708;DHT22;3896;48.758;8.888;2022-10-04T22:41:38;10.30;99.90
7708;DHT22;3896;48.758;8.888;2022-10-04T22:44:14;10.30;99.90
7708;DHT22;3896;48.758;8.888;2022-10-04T22:46:43;10.30;99.90
7708;DHT22;3896;48.758;8.888;2022-10-04T22:49:11;10.30;99.90
7708;DHT22;3896;48.758;8.888;2022-10-04T22:51:40;10.20;99.90
7708;DHT22;3896;48.758;8.888;2022-10-04T22:54:14;10.20;99.90
7708;DHT22;3896;48.758;8.888;2022-10-04T22:56:40;10.10;99.90
7708;DHT22;3896;48.758;8.888;2022-10-04T22:59:11;10.10;99.90
7708;DHT22;3896;48.758;8.888;2022-10-04T23:01:38;10.10;99.90
7708;DHT22;3896;48.758;8.888;2022-10-04T23:04:20;10.10;99.90
7708;DHT22;3896;48.758;8.888;2022-10-04T23:06:47;10.00;99.90
7708;DHT22;3896;48.758;8.888;2022-10-04T23:09:12;10.00;99.90
7708;DHT22;3896;48.758;8.888;2022-10-04T23:11:38;10.00;99.90
7708;DHT22;3896;48.758;8.888;2022-10-04T23:14:04;9.90;99.90
7708;DHT22;3896;48.758;8.888;2022-10-04T23:16:30;9.90;99.90
7708;DHT22;3896;48.758;8.888;2022-10-04T23:21:36;9.90;99.90
7708;DHT22;3896;48.758;8.888;2022-10-04T23:24:21;9.80;99.90
7708;DHT22;3896;48.758;8.888;2022-10-04T23:26:56;9.80;99.90
7708;DHT22;3896;48.758;8.888;2022-10-04T23:29:29;9.80;99.90
7708;DHT22;3896;48.758;8.888;2022-10-04T23:31:56;9.70;99.90
7708;DHT22;3896;48.758;8.888;2022-10-04T23:34:33;9.70;99.90
7708;DHT22;3896;48.758;8.888;2022-10-04T23:36:59;9.70;99.90
7708;DHT22;3896;48.758;8.888;2022-10-04T23:39:29;9.70;99.90
7708;DHT22;3896;48.758;8.888;2022-10-04T23:41:55;9.60;99.90
7708;DHT22;3896;48.758;8.888;2022-10-04T23:44:34;9.60;99.90
7708;DHT22;3896;48.758;8.888;2022-10-04T23:47:02;9.60;99.90
7708;DHT22;3896;48.758;8.888;2022-10-04T23:49:29;9.60;99.90
7708;DHT22;3896;48.758;8.888;2022-10-04T23:51:58;9.60;99.90
7708;DHT22;3896;48.758;8.888;2022-10-04T23:54:25;9.50;99.90
7708;DHT22;3896;48.758;8.888;2022-10-04T23:56:52;9.50;99.90
7708;DHT22;3896;48.758;8.888;2022-10-04T23:59:20;9.50;99.90
